Milo, Maine
Current Conditions -  °F | °C
As of 6:53 PM on Thursday 18 Dec 2014 (Local Time) from KMLT Reporting Station
Overcast Overcast  
Wind Chill: 19°   Ceiling: 2700
Heat Index: 28°   Visibility: 10mi
Dew Point: 24°   Wind: 9mph
Humidity: 85%   Direction: 300°WNW
Pressure: 29.66"   Gusts: NA
Location:  45.25°N, 68.98°W
Report Text: KMLT 182353Z AUTO 30008KT 10SM OVC027 M02/M04 A2966 RMK AO2 SLP055 6//// T10221044 10006 21022 53011 $
Loading
Personal Weather Stations






























Interactive Weather Map New forecast layout! Learn more

10-Day Weather Forecast

Advertisements
Track Severe Weather on mobile